Heber, California
Current Conditions -  °F | °C
As of 11:53 PM on Monday 20 Oct 2014 (Local Time) from KIPL Reporting Station
Clear Clear  
Wind Chill: 75°   Ceiling: Unl
Heat Index: 75°   Visibility: 10mi
Dew Point: 54°   Wind: 5mph
Humidity: 48%   Direction: 250°WSW
Pressure: 29.77"   Gusts: NA
Location:  32.73°N, 115.53°W
Report Text: KIPL 210653Z AUTO 25004KT 10SM CLR 24/12 A2977 RMK AO2 SLP081 T02390122
Loading
Personal Weather Stations






























Interactive Weather Map
Tropical Storm Tracking
New forecast layout! Learn more

10-Day Weather Forecast

Advertisements
Track Severe Weather on mobile